Tieling, China
Current Conditions -  °F | °C
As of 1:00 AM on Monday 24 Nov 2014 (Local Time) from ZYTX Reporting Station
Haze Haze  
Wind Chill: 25°   Ceiling: 3300
Heat Index: 30°   Visibility: 2mi
Dew Point: 28°   Wind: 4mph
Humidity: 93%   Direction: 20°NNE
Pressure: 30.27"   Gusts: NA
Location:  42.3°N, 123.82°E
Report Text: ZYTX 231700Z 02002MPS 3200 BR OVC033 M01/M02 Q1025 NOSIG
Loading
Personal Weather Stations






























Interactive Weather Map New forecast layout! Learn more

10-Day Weather Forecast

Advertisements
Track Severe Weather on mobile